createdAt,value
2022-11-13T00:02:48.329Z,80.43
2022-11-13T00:08:11.547Z,115.22
2022-11-13T00:13:34.165Z,88.55
2022-11-13T00:18:55.762Z,74.80
2022-11-13T00:24:18.568Z,86.05
2022-11-13T00:29:40.236Z,97.50
2022-11-13T00:35:02.048Z,50.30
2022-11-13T00:40:24.981Z,28.65
2022-11-13T00:45:46.484Z,41.28
2022-11-13T00:51:08.403Z,36.85
2022-11-13T00:56:30.972Z,34.25
2022-11-13T01:01:52.418Z,52.75
2022-11-13T01:07:13.895Z,62.92
2022-11-13T01:12:36.881Z,66.03
2022-11-13T01:17:58.518Z,26.73
2022-11-13T01:23:19.745Z,43.80
2022-11-13T01:28:43.978Z,48.78
2022-11-13T01:34:05.604Z,45.55
2022-11-13T01:39:27.414Z,42.17
2022-11-13T01:44:53.416Z,49.05
2022-11-13T01:50:16.084Z,62.15
2022-11-13T01:55:37.546Z,77.65
2022-11-13T02:01:00.454Z,45.63
2022-11-13T02:06:22.721Z,119.30
2022-11-13T02:11:44.892Z,89.72
2022-11-13T02:17:10.164Z,114.05
2022-11-13T02:22:39.600Z,105.00
2022-11-13T02:28:02.765Z,81.68
2022-11-13T02:33:27.493Z,55.08
2022-11-13T02:38:49.676Z,53.85
2022-11-13T02:44:13.499Z,33.97
2022-11-13T02:49:34.967Z,106.88
2022-11-13T02:54:56.550Z,50.00
2022-11-13T03:00:20.216Z,58.13
2022-11-13T03:05:41.665Z,20.92
2022-11-13T03:11:08.776Z,15.13
2022-11-13T03:16:31.273Z,21.45
2022-11-13T03:21:53.187Z,43.00
2022-11-13T03:27:14.615Z,57.33
2022-11-13T03:32:37.656Z,65.47
2022-11-13T03:37:59.193Z,39.60
2022-11-13T03:43:21.031Z,128.23
2022-11-13T03:48:43.751Z,124.25
2022-11-13T03:54:05.743Z,103.85
2022-11-13T03:59:27.014Z,226.88
2022-11-13T04:04:49.961Z,141.25
2022-11-13T04:10:11.503Z,89.07
2022-11-13T04:15:33.023Z,90.97
2022-11-13T04:21:01.277Z,88.85
2022-11-13T04:26:23.211Z,85.13
2022-11-13T04:31:45.179Z,58.00
2022-11-13T04:37:08.124Z,62.55
2022-11-13T04:42:47.186Z,44.92
2022-11-13T04:48:09.080Z,60.65
2022-11-13T04:53:32.140Z,64.78
2022-11-13T04:58:53.982Z,98.25
2022-11-13T05:04:16.768Z,110.88
2022-11-13T05:09:39.477Z,109.30
2022-11-13T05:15:01.600Z,47.08
2022-11-13T05:20:23.398Z,88.15
2022-11-13T05:25:46.494Z,61.13
2022-11-13T05:31:09.990Z,51.25
2022-11-13T05:36:31.401Z,71.38
2022-11-13T05:41:54.359Z,34.17
2022-11-13T05:47:15.995Z,47.05
2022-11-13T05:52:37.579Z,60.08
2022-11-13T05:58:01.506Z,34.38
2022-11-13T06:03:22.716Z,30.27
2022-11-13T06:08:45.023Z,28.02
2022-11-13T06:14:08.285Z,27.35
2022-11-13T06:19:29.598Z,11.85
2022-11-13T06:24:51.296Z,11.77
2022-11-13T06:30:16.050Z,17.60
2022-11-13T06:35:37.230Z,13.27
2022-11-13T06:40:59.261Z,22.70
2022-11-13T06:46:23.769Z,19.65
2022-11-13T06:51:45.015Z,68.10
2022-11-13T06:57:06.402Z,74.80
2022-11-13T07:02:29.447Z,71.35
2022-11-13T07:07:51.030Z,40.80
2022-11-13T07:13:12.474Z,81.07
2022-11-13T07:18:35.880Z,44.40
2022-11-13T07:23:57.536Z,15.63
2022-11-13T07:29:19.112Z,14.25
2022-11-13T07:34:42.082Z,17.15
2022-11-13T07:40:03.833Z,13.15
2022-11-13T07:45:25.693Z,15.60
2022-11-13T07:50:48.655Z,18.63
2022-11-13T07:56:10.145Z,10.82
2022-11-13T08:01:31.625Z,13.60
2022-11-13T08:06:54.640Z,14.07
2022-11-13T08:12:16.435Z,14.70
2022-11-13T08:17:37.572Z,15.77
2022-11-13T08:23:01.785Z,14.68
2022-11-13T08:28:23.464Z,9.13
2022-11-13T08:33:45.214Z,10.23
2022-11-13T08:39:09.791Z,10.18
2022-11-13T08:44:31.454Z,10.02
2022-11-13T08:49:53.174Z,11.77
2022-11-13T08:55:16.296Z,11.13
2022-11-13T09:00:38.083Z,16.00
2022-11-13T09:05:59.906Z,12.02
2022-11-13T09:11:23.043Z,9.27
2022-11-13T09:16:44.721Z,8.00
2022-11-13T09:22:06.353Z,10.23
2022-11-13T09:27:29.236Z,9.65
2022-11-13T09:32:55.043Z,9.25
2022-11-13T09:38:16.929Z,16.88
2022-11-13T09:43:44.176Z,14.70
2022-11-13T09:49:14.802Z,18.60
2022-11-13T09:54:36.434Z,6.97
2022-11-13T10:00:04.758Z,6.15
2022-11-13T10:05:35.641Z,6.93
2022-11-13T10:11:04.655Z,6.05
2022-11-13T10:16:33.068Z,7.50
2022-11-13T10:22:19.520Z,6.40
2022-11-13T10:33:08.226Z,7.50
2022-11-13T10:44:04.151Z,6.30
2022-11-13T10:49:29.844Z,7.43
2022-11-13T10:54:52.023Z,6.38
2022-11-13T11:00:22.143Z,6.07
2022-11-13T11:05:57.649Z,9.43
2022-11-13T11:11:33.837Z,4.68
2022-11-13T11:16:57.194Z,6.07
2022-11-13T11:22:24.347Z,5.85
2022-11-13T11:27:52.155Z,3.47
2022-11-13T11:33:18.142Z,5.78
2022-11-13T11:38:49.474Z,5.33
2022-11-13T11:44:19.672Z,4.72
2022-11-13T11:49:41.345Z,38.35
2022-11-13T11:55:18.898Z,8.82
2022-11-13T12:00:49.366Z,10.70
2022-11-13T12:06:24.724Z,5.47
2022-11-13T12:11:57.132Z,8.05
2022-11-13T12:17:31.666Z,7.78
2022-11-13T12:23:03.344Z,5.13
2022-11-13T12:28:39.720Z,5.38
2022-11-13T12:34:07.008Z,35.72
2022-11-13T12:39:37.735Z,4.22
2022-11-13T12:45:09.022Z,6.72
2022-11-13T12:50:33.057Z,12.50
2022-11-13T12:56:00.557Z,6.95
2022-11-13T13:01:25.125Z,10.55
2022-11-13T13:07:01.387Z,14.00
2022-11-13T13:12:40.557Z,7.83
2022-11-13T13:18:11.837Z,11.13
2022-11-13T13:23:36.033Z,5.65
2022-11-13T13:29:15.116Z,9.95
2022-11-13T13:34:47.875Z,7.40
2022-11-13T13:40:19.140Z,6.05
2022-11-13T13:45:52.203Z,4.80
2022-11-13T13:51:21.853Z,4.63
2022-11-13T13:56:43.666Z,5.97
2022-11-13T14:02:15.332Z,4.05
2022-11-13T14:07:47.148Z,6.38
2022-11-13T14:13:13.348Z,4.22
2022-11-13T14:18:36.284Z,8.27
2022-11-13T14:24:01.426Z,7.45
2022-11-13T14:29:33.954Z,7.15
2022-11-13T14:34:59.999Z,5.47
2022-11-13T14:40:26.058Z,5.63
2022-11-13T14:45:55.168Z,5.40
2022-11-13T14:51:24.657Z,6.45
2022-11-13T14:56:47.758Z,5.45
2022-11-13T15:02:12.472Z,7.18
2022-11-13T15:07:40.752Z,11.35
2022-11-13T15:13:06.498Z,5.70
2022-11-13T15:18:28.205Z,7.28
2022-11-13T15:23:49.524Z,18.60
2022-11-13T15:29:12.360Z,22.42
2022-11-13T15:34:33.820Z,13.05
2022-11-13T15:39:55.453Z,7.00
2022-11-13T15:45:18.518Z,16.65
2022-11-13T15:50:40.413Z,6.97
2022-11-13T15:56:05.879Z,9.38
2022-11-13T16:01:28.669Z,18.52
2022-11-13T16:06:50.389Z,16.33
2022-11-13T16:12:12.873Z,12.43
2022-11-13T16:17:42.717Z,13.90
2022-11-13T16:23:04.022Z,14.20
2022-11-13T16:28:25.423Z,14.45
2022-11-13T16:33:48.506Z,18.77
2022-11-13T16:39:14.944Z,52.55
2022-11-13T16:44:36.582Z,48.67
2022-11-13T16:50:02.464Z,17.73
2022-11-13T16:55:24.163Z,23.17
2022-11-13T17:00:45.832Z,15.43
2022-11-13T17:06:20.364Z,19.73
2022-11-13T17:11:42.069Z,25.75
2022-11-13T17:17:04.362Z,22.05
2022-11-13T17:22:27.166Z,32.75
2022-11-13T17:27:49.039Z,41.70
2022-11-13T17:33:11.459Z,28.63
2022-11-13T17:38:34.636Z,27.23
2022-11-13T17:44:00.830Z,37.58
2022-11-13T17:49:24.125Z,23.40
2022-11-13T17:54:48.057Z,22.05
2022-11-13T18:00:10.882Z,19.48
2022-11-13T18:05:40.531Z,26.42
2022-11-13T18:11:09.295Z,23.23
2022-11-13T18:16:34.626Z,14.45
2022-11-13T18:21:55.937Z,16.17
2022-11-13T18:27:18.802Z,12.52
2022-11-13T18:32:40.394Z,12.45
2022-11-13T18:38:03.977Z,23.77
2022-11-13T18:43:26.891Z,22.17
2022-11-13T18:48:49.582Z,24.10
2022-11-13T18:54:12.794Z,29.90
2022-11-13T18:59:35.679Z,22.42
2022-11-13T19:04:58.566Z,23.30
2022-11-13T19:10:20.286Z,23.77
2022-11-13T19:15:44.310Z,20.50
2022-11-13T19:21:07.992Z,24.83
2022-11-13T19:26:30.184Z,25.25
2022-11-13T19:31:56.026Z,18.25
2022-11-13T19:37:19.239Z,18.83
2022-11-13T19:42:42.157Z,15.40
2022-11-13T19:48:05.143Z,16.52
2022-11-13T19:53:26.467Z,19.92
2022-11-13T19:58:49.479Z,17.58
2022-11-13T20:04:14.486Z,13.88
2022-11-13T20:09:36.226Z,19.00
2022-11-13T20:14:57.590Z,20.23
2022-11-13T20:20:20.372Z,19.98
2022-11-13T20:25:43.892Z,15.98
2022-11-13T20:31:07.502Z,17.10
2022-11-13T20:36:30.506Z,19.25
2022-11-13T20:41:51.781Z,17.75
2022-11-13T20:47:13.437Z,17.33
2022-11-13T20:52:36.392Z,18.05
2022-11-13T20:57:58.337Z,26.50
2022-11-13T21:03:20.095Z,16.50
2022-11-13T21:08:43.922Z,12.20
2022-11-13T21:14:05.594Z,14.90
2022-11-13T21:19:28.463Z,28.05
2022-11-13T21:24:51.556Z,12.10
2022-11-13T21:30:13.723Z,20.08
2022-11-13T21:35:35.364Z,16.00
2022-11-13T21:41:18.845Z,17.27
2022-11-13T21:46:43.115Z,14.23
2022-11-13T21:52:05.657Z,15.43
2022-11-13T21:57:28.723Z,18.90
2022-11-13T22:02:51.064Z,19.38
2022-11-13T22:08:12.805Z,18.70
2022-11-13T22:13:37.276Z,19.73
2022-11-13T22:19:01.481Z,21.92
2022-11-13T22:24:23.314Z,19.23
2022-11-13T22:29:46.602Z,19.75
2022-11-13T22:35:08.964Z,27.15
2022-11-13T22:40:30.560Z,24.38
2022-11-13T22:45:53.424Z,37.65
2022-11-13T22:51:16.401Z,28.98
2022-11-13T22:56:39.329Z,37.10
2022-11-13T23:02:02.493Z,33.08
2022-11-13T23:07:24.323Z,29.38
2022-11-13T23:12:45.878Z,27.90
2022-11-13T23:18:09.938Z,37.55
2022-11-13T23:23:31.642Z,27.13
2022-11-13T23:28:53.997Z,17.58
2022-11-13T23:34:38.435Z,17.70
2022-11-13T23:39:59.507Z,15.90
2022-11-13T23:45:21.198Z,15.68
2022-11-13T23:50:44.841Z,12.02
2022-11-13T23:56:07.116Z,17.88
